Overview Statistics Trail Chart Weather Telemetry Raw packets
 

This is the latest recevied weather packets stored in our database for station/object K1RFS. If no packets are shown the sender has not sent any weather packets the latest 10 day(s).

<< 87 88 89 90 91 92 93 >>
Time Temp. Humidity Pressure Rain* Wind** Luminosity Snow
1788051309 21.11° C 61% 1002.4 hPa 0 mm - 2 W/m² -
1788051009 21.67° C 60% 1002.2 hPa 0 mm - 5 W/m² -
1788050704 21.67° C 59% 1001.8 hPa 0 mm - 13 W/m² -
1788050403 21.67° C 59% 1002 hPa 0 mm - 13 W/m² -
1788050098 21.67° C 60% 1002.1 hPa 0 mm - 15 W/m² -
1788049796 21.67° C 60% 1002.2 hPa 0 mm - 29 W/m² -
1788049491 21.67° C 60% 1002.4 hPa 0 mm - 41 W/m² -
1788049187 22.22° C 59% 1002.5 hPa 0 mm - 61 W/m² -
1788048882 22.22° C 61% 1002.3 hPa 0 mm - 78 W/m² -
1788048576 22.78° C 61% 1002.2 hPa 0 mm - 110 W/m² -
1788048274 23.89° C 57% 1002.3 hPa 0 mm - 163 W/m² -
1788047972 22.22° C 60% 1002.4 hPa 0 mm - 277 W/m² -
1788047661 21.67° C 63% 1002.3 hPa 0 mm - 147 W/m² -
1788047360 21.67° C 64% 1002.5 hPa 0 mm - 153 W/m² -
1788047055 21.11° C 64% 1002.9 hPa 0 mm - 109 W/m² -
1788046756 21.11° C 66% 1003 hPa 0 mm - 106 W/m² -
1788046455 21.11° C 67% 1003.1 hPa 0 mm - 109 W/m² -
1788046154 21.11° C 66% 1003 hPa 0 mm - 106 W/m² -
1788045848 20.56° C 66% 1003.1 hPa 0 mm - 123 W/m² -
1788045544 20.56° C 69% 1002.9 hPa 0 mm - 133 W/m² -
1788045239 20.56° C 67% 1002.6 hPa 0 mm - 118 W/m² -
1788044934 20.56° C 69% 1002.9 hPa 1.78 mm - 104 W/m² -
1788044633 20.56° C 68% 1002.8 hPa 1.78 mm - 91 W/m² -
1788044332 21.11° C 66% 1002.2 hPa 0 mm - 75 W/m² -
1788044029 21.11° C 62% 1003.2 hPa 0 mm - 44 W/m² -

* Rain latest hour (hover to see other rain measurements)
** Current wind speed in m/s (hover to see current wind gust speed)